createdAt,value
2023-03-13T00:00:17.751Z,17.799999
2023-03-13T00:01:26.281Z,12.6
2023-03-13T00:02:34.639Z,12.6
2023-03-13T00:03:42.952Z,12.6
2023-03-13T00:04:51.479Z,16
2023-03-13T00:05:59.799Z,16
2023-03-13T00:07:08.154Z,16
2023-03-13T00:08:16.675Z,18.5
2023-03-13T00:09:24.989Z,18.5
2023-03-13T00:10:33.316Z,18.5
2023-03-13T00:11:41.836Z,17.799999
2023-03-13T00:12:50.175Z,17.799999
2023-03-13T00:13:58.516Z,17.799999
2023-03-13T00:15:07.022Z,12.9
2023-03-13T00:16:15.451Z,12.9
2023-03-13T00:17:23.692Z,12.9
2023-03-13T00:18:32.230Z,12.8
2023-03-13T00:19:40.561Z,12.8
2023-03-13T00:20:48.878Z,12.8
2023-03-13T00:21:57.412Z,16.1
2023-03-13T00:23:05.775Z,16.1
2023-03-13T00:24:14.061Z,16.1
2023-03-13T00:25:22.613Z,13.4
2023-03-13T00:26:30.913Z,13.4
2023-03-13T00:27:39.242Z,13.4
2023-03-13T00:28:47.772Z,13.3
2023-03-13T00:29:56.091Z,13.3
2023-03-13T00:31:04.466Z,13.3
2023-03-13T00:32:13.023Z,16.799999
2023-03-13T00:33:21.294Z,16.799999
2023-03-13T00:34:29.617Z,16.799999
2023-03-13T00:35:38.194Z,16.1
2023-03-13T00:36:46.482Z,16.1
2023-03-13T00:37:54.813Z,16.1
2023-03-13T00:39:03.471Z,18
2023-03-13T00:40:11.679Z,18
2023-03-13T00:41:19.998Z,18
2023-03-13T00:42:28.534Z,17.1
2023-03-13T00:43:36.853Z,17.1
2023-03-13T00:44:45.175Z,17.1
2023-03-13T00:45:53.732Z,17.700001
2023-03-13T00:47:02.026Z,17.700001
2023-03-13T00:48:10.374Z,17.700001
2023-03-13T00:49:18.904Z,16.9
2023-03-13T00:50:27.221Z,16.9
2023-03-13T00:51:35.541Z,16.9
2023-03-13T00:52:44.087Z,15.5
2023-03-13T00:53:52.415Z,15.5
2023-03-13T00:55:00.758Z,15.5
2023-03-13T00:56:09.251Z,16.299999
2023-03-13T00:57:17.573Z,16.299999
2023-03-13T00:58:25.902Z,16.299999
2023-03-13T00:59:34.448Z,16.799999
2023-03-13T01:00:42.777Z,16.799999
2023-03-13T01:01:51.102Z,16.799999
2023-03-13T01:02:59.741Z,17.299999
2023-03-13T01:04:08.014Z,17.299999
2023-03-13T01:05:16.301Z,17.299999
2023-03-13T01:06:24.837Z,16.299999
2023-03-13T01:07:33.172Z,16.299999
2023-03-13T01:08:41.496Z,16.299999
2023-03-13T01:09:50.037Z,14.4
2023-03-13T01:10:58.378Z,14.4
2023-03-13T01:12:06.685Z,14.4
2023-03-13T01:13:15.226Z,14.7
2023-03-13T01:14:23.549Z,14.7
2023-03-13T01:15:31.932Z,14.7
2023-03-13T01:16:40.433Z,12.1
2023-03-13T01:17:48.770Z,12.1
2023-03-13T01:18:57.099Z,12.1
2023-03-13T01:20:05.677Z,13.1
2023-03-13T01:21:13.963Z,13.1
2023-03-13T01:22:22.276Z,13.1
2023-03-13T01:23:30.820Z,17.1
2023-03-13T01:24:39.144Z,17.1
2023-03-13T01:25:47.467Z,17.1
2023-03-13T01:26:56.023Z,17.799999
2023-03-13T01:28:04.340Z,17.799999
2023-03-13T01:29:12.660Z,17.799999
2023-03-13T01:30:21.234Z,21.200001
2023-03-13T01:31:29.652Z,21.200001
2023-03-13T01:32:37.867Z,21.200001
2023-03-13T01:33:46.395Z,16.799999
2023-03-13T01:34:54.701Z,16.799999
2023-03-13T01:36:03.066Z,16.799999
2023-03-13T01:37:11.558Z,15.3
2023-03-13T01:38:19.882Z,15.3
2023-03-13T01:39:28.205Z,15.3
2023-03-13T01:40:36.740Z,15
2023-03-13T01:41:45.065Z,15
2023-03-13T01:42:53.436Z,15
2023-03-13T01:44:01.938Z,20
2023-03-13T01:45:10.272Z,20
2023-03-13T01:46:18.731Z,20
2023-03-13T01:47:27.122Z,17.9
2023-03-13T01:48:35.456Z,17.9
2023-03-13T01:49:43.779Z,17.9
2023-03-13T01:50:52.305Z,19.799999
2023-03-13T01:52:00.625Z,19.799999
2023-03-13T01:53:08.966Z,19.799999
2023-03-13T01:54:17.495Z,14.2
2023-03-13T01:55:25.814Z,14.2
2023-03-13T01:56:34.133Z,14.2
2023-03-13T01:57:42.666Z,13.4
2023-03-13T01:58:51.008Z,13.4
2023-03-13T01:59:59.307Z,13.4
2023-03-13T02:01:07.835Z,16.9
2023-03-13T02:02:16.156Z,16.9
2023-03-13T02:03:24.515Z,16.9
2023-03-13T02:04:33.036Z,17.700001
2023-03-13T02:05:41.347Z,17.700001
2023-03-13T02:06:49.662Z,17.700001
2023-03-13T02:07:58.201Z,19.4
2023-03-13T02:09:06.526Z,19.4
2023-03-13T02:10:14.865Z,19.4
2023-03-13T02:11:23.378Z,14.1
2023-03-13T02:12:31.701Z,14.1
2023-03-13T02:13:40.034Z,14.1
2023-03-13T02:14:48.588Z,20.200001
2023-03-13T02:15:56.930Z,20.200001
2023-03-13T02:17:05.211Z,20.200001
2023-03-13T02:18:13.790Z,16.200001
2023-03-13T02:19:22.075Z,16.200001
2023-03-13T02:20:30.401Z,16.200001
2023-03-13T02:21:38.924Z,16
2023-03-13T02:22:47.262Z,16
2023-03-13T02:23:55.577Z,16
2023-03-13T02:25:04.110Z,14.1
2023-03-13T02:26:12.430Z,14.1
2023-03-13T02:27:20.759Z,14.1
2023-03-13T02:28:29.296Z,16.6
2023-03-13T02:29:37.608Z,16.6
2023-03-13T02:30:45.957Z,16.6
2023-03-13T02:31:54.505Z,15.3
2023-03-13T02:33:02.883Z,15.3
2023-03-13T02:34:11.108Z,15.3
2023-03-13T02:35:19.691Z,15.9
2023-03-13T02:36:27.965Z,15.9
2023-03-13T02:37:36.318Z,15.9
2023-03-13T02:38:44.848Z,15.5
2023-03-13T02:39:53.166Z,15.5
2023-03-13T02:41:01.515Z,15.5
2023-03-13T02:42:10.031Z,19.9
2023-03-13T02:43:18.350Z,19.9
2023-03-13T02:44:26.676Z,19.9
2023-03-13T02:45:35.223Z,17.1
2023-03-13T02:46:43.603Z,17.1
2023-03-13T02:47:51.895Z,17.1
2023-03-13T02:49:00.428Z,14.1
2023-03-13T02:50:08.761Z,14.1
2023-03-13T02:51:17.074Z,14.1
2023-03-13T02:52:25.619Z,12.6
2023-03-13T02:53:33.974Z,12.6
2023-03-13T02:54:42.301Z,12.6
2023-03-13T02:55:50.851Z,13.6
2023-03-13T02:56:59.188Z,13.6
2023-03-13T02:58:07.519Z,13.6
2023-03-13T02:59:16.064Z,11.5
2023-03-13T03:00:24.396Z,11.5
2023-03-13T03:01:32.714Z,11.5
2023-03-13T03:02:41.284Z,11.2
2023-03-13T03:03:49.728Z,11.2
2023-03-13T03:04:57.938Z,11.2
2023-03-13T03:06:06.468Z,12.3
2023-03-13T03:07:14.788Z,12.3
2023-03-13T03:08:23.121Z,12.3
2023-03-13T03:09:31.661Z,14.5
2023-03-13T03:10:39.990Z,14.5
2023-03-13T03:11:48.317Z,14.5
2023-03-13T03:12:56.858Z,16.200001
2023-03-13T03:14:05.181Z,16.200001
2023-03-13T03:15:13.520Z,16.200001
2023-03-13T03:16:22.128Z,12.3
2023-03-13T03:17:30.391Z,12.3
2023-03-13T03:18:38.745Z,12.3
2023-03-13T03:19:47.251Z,15.3
2023-03-13T03:20:55.573Z,15.3
2023-03-13T03:22:03.886Z,15.3
2023-03-13T03:23:12.433Z,11.8
2023-03-13T03:24:20.748Z,11.8
2023-03-13T03:25:29.070Z,11.8
2023-03-13T03:26:37.601Z,14.6
2023-03-13T03:27:45.945Z,14.6
2023-03-13T03:28:54.289Z,14.6
2023-03-13T03:30:03.506Z,13.4
2023-03-13T03:31:11.853Z,13.4
2023-03-13T03:32:20.200Z,13.4
2023-03-13T03:33:28.711Z,16.4
2023-03-13T03:34:37.077Z,16.4
2023-03-13T03:35:45.359Z,16.4
2023-03-13T03:36:53.894Z,13.2
2023-03-13T03:38:02.230Z,13.2
2023-03-13T03:39:10.548Z,13.2
2023-03-13T03:40:19.074Z,13.6
2023-03-13T03:41:27.404Z,13.6
2023-03-13T03:42:35.722Z,13.6
2023-03-13T03:43:44.254Z,13
2023-03-13T03:44:52.577Z,13
2023-03-13T03:46:00.934Z,13
2023-03-13T03:47:09.528Z,15.7
2023-03-13T03:48:17.789Z,15.7
2023-03-13T03:49:26.099Z,15.7
2023-03-13T03:50:34.650Z,14.8
2023-03-13T03:51:42.959Z,14.8
2023-03-13T03:52:51.272Z,14.8
2023-03-13T03:53:59.803Z,13
2023-03-13T03:55:08.132Z,13
2023-03-13T03:56:16.449Z,13
2023-03-13T03:57:24.970Z,12.9
2023-03-13T03:58:33.317Z,12.9
2023-03-13T03:59:41.642Z,12.9
2023-03-13T04:00:50.170Z,12.6
2023-03-13T04:01:58.529Z,12.6
2023-03-13T04:03:06.898Z,12.6
2023-03-13T04:04:15.354Z,12.6
2023-03-13T04:05:23.678Z,12.6
2023-03-13T04:06:32.028Z,12.6
2023-03-13T04:07:40.539Z,11
2023-03-13T04:08:48.860Z,11
2023-03-13T04:09:57.192Z,11
2023-03-13T04:11:05.718Z,13.3
2023-03-13T04:12:14.045Z,13.3
2023-03-13T04:13:22.378Z,13.3
2023-03-13T04:14:30.900Z,10.5
2023-03-13T04:15:39.223Z,10.5
2023-03-13T04:16:47.592Z,10.5
2023-03-13T04:17:56.116Z,15
2023-03-13T04:19:04.434Z,15
2023-03-13T04:20:12.781Z,15
2023-03-13T04:21:21.309Z,11.2
2023-03-13T04:22:29.680Z,11.2
2023-03-13T04:23:37.980Z,11.2
2023-03-13T04:24:46.500Z,12
2023-03-13T04:25:54.827Z,12
2023-03-13T04:27:03.162Z,12
2023-03-13T04:28:11.705Z,11.6
2023-03-13T04:29:20.132Z,11.6
2023-03-13T04:30:28.432Z,11.6
2023-03-13T04:31:36.956Z,14.2
2023-03-13T04:32:45.347Z,14.2
2023-03-13T04:33:53.671Z,14.2
2023-03-13T04:35:02.238Z,14.4
2023-03-13T04:36:10.653Z,14.4
2023-03-13T04:37:18.960Z,14.4
2023-03-13T04:38:27.544Z,12.8
2023-03-13T04:39:35.814Z,12.8
2023-03-13T04:40:44.141Z,12.8
2023-03-13T04:41:52.682Z,12.8
2023-03-13T04:43:01.022Z,12.8
2023-03-13T04:44:09.356Z,12.8
2023-03-13T04:45:17.879Z,15.8
2023-03-13T04:46:26.250Z,15.8
2023-03-13T04:47:34.545Z,15.8
2023-03-13T04:48:43.073Z,14.7
2023-03-13T04:49:51.406Z,14.7
2023-03-13T04:50:59.714Z,14.7
2023-03-13T04:52:08.259Z,13.8
2023-03-13T04:53:16.606Z,13.8
2023-03-13T04:54:24.954Z,13.8
2023-03-13T04:55:33.460Z,14.9
2023-03-13T04:56:43.849Z,14.9
2023-03-13T04:57:50.154Z,14.9
2023-03-13T04:58:58.687Z,197.19999
2023-03-13T05:00:07.002Z,197.19999
2023-03-13T05:01:15.400Z,197.19999
2023-03-13T05:02:23.864Z,994.29998
2023-03-13T05:03:32.186Z,994.29998
2023-03-13T05:04:40.616Z,994.29998
2023-03-13T05:05:49.052Z,150.1
2023-03-13T05:06:57.387Z,150.1
2023-03-13T05:08:05.715Z,150.1
2023-03-13T05:09:14.278Z,88.699997
2023-03-13T05:10:22.630Z,88.699997
2023-03-13T05:11:30.935Z,88.699997
2023-03-13T05:12:39.482Z,28.1
2023-03-13T05:13:48.330Z,28.1
2023-03-13T05:14:56.646Z,28.1
2023-03-13T05:16:05.177Z,61.099998
2023-03-13T05:17:13.512Z,61.099998
2023-03-13T05:18:21.863Z,61.099998
2023-03-13T05:19:30.402Z,12.7
2023-03-13T05:20:38.718Z,12.7
2023-03-13T05:21:47.076Z,12.7
2023-03-13T05:22:55.632Z,14
2023-03-13T05:24:03.964Z,14
2023-03-13T05:25:12.275Z,14
2023-03-13T05:26:20.831Z,23
2023-03-13T05:27:29.136Z,23
2023-03-13T05:28:37.474Z,23
2023-03-13T05:29:46.009Z,12.5
2023-03-13T05:30:54.399Z,12.5
2023-03-13T05:32:02.691Z,12.5
2023-03-13T05:33:11.220Z,12.3
2023-03-13T05:34:19.555Z,12.3
2023-03-13T05:35:27.895Z,12.3
2023-03-13T05:36:36.411Z,18
2023-03-13T05:37:44.745Z,18
2023-03-13T05:38:53.068Z,18
2023-03-13T05:40:01.629Z,13.3
2023-03-13T05:41:09.942Z,13.3
2023-03-13T05:42:18.293Z,13.3
2023-03-13T05:43:26.809Z,17.1
2023-03-13T05:44:35.155Z,17.1
2023-03-13T05:45:43.477Z,17.1
2023-03-13T05:46:52.068Z,76.800003
2023-03-13T05:48:00.345Z,76.800003
2023-03-13T05:49:08.679Z,76.800003
2023-03-13T05:50:17.227Z,21.700001
2023-03-13T05:51:25.549Z,21.700001
2023-03-13T05:52:33.893Z,21.700001
2023-03-13T05:53:42.425Z,41.400002
2023-03-13T05:54:50.755Z,41.400002
2023-03-13T05:55:59.087Z,41.400002
2023-03-13T05:57:07.614Z,16.6
2023-03-13T05:58:15.996Z,16.6
2023-03-13T05:59:24.312Z,16.6
2023-03-13T06:00:32.836Z,137.6
2023-03-13T06:01:41.164Z,137.6
2023-03-13T06:02:49.496Z,137.6
2023-03-13T06:03:58.130Z,16.4
2023-03-13T06:05:06.415Z,16.4
2023-03-13T06:06:14.699Z,16.4
2023-03-13T06:07:23.228Z,14.1
2023-03-13T06:08:31.558Z,14.1
2023-03-13T06:09:39.881Z,14.1
2023-03-13T06:10:48.408Z,12.3
2023-03-13T06:11:56.732Z,12.3
2023-03-13T06:13:17.369Z,12.3
2023-03-13T06:14:13.725Z,9.8
2023-03-13T06:15:21.921Z,9.8
2023-03-13T06:16:30.302Z,9.8
2023-03-13T06:17:38.802Z,11.1
2023-03-13T06:18:47.141Z,11.1
2023-03-13T06:19:55.473Z,11.1
2023-03-13T06:21:04.013Z,9.1
2023-03-13T06:22:12.336Z,9.1
2023-03-13T06:23:20.696Z,9.1
2023-03-13T06:24:29.234Z,6.7
2023-03-13T06:25:37.574Z,6.7
2023-03-13T06:26:45.902Z,6.7
2023-03-13T06:27:54.438Z,6.9
2023-03-13T06:29:02.765Z,6.9
2023-03-13T06:30:11.121Z,6.9
2023-03-13T06:31:19.667Z,11.4
2023-03-13T06:32:28.038Z,11.4
2023-03-13T06:33:36.336Z,11.4
2023-03-13T06:34:44.851Z,7.7
2023-03-13T06:35:56.518Z,7.7
2023-03-13T06:37:01.581Z,7.7
2023-03-13T06:38:10.067Z,5.8
2023-03-13T06:39:18.402Z,5.8
2023-03-13T06:40:26.747Z,5.8
2023-03-13T06:41:35.281Z,4.9
2023-03-13T06:42:43.618Z,4.9
2023-03-13T06:43:51.949Z,4.9
2023-03-13T06:45:00.516Z,8.6
2023-03-13T06:46:08.867Z,8.6
2023-03-13T06:47:17.233Z,8.6
2023-03-13T06:48:25.734Z,6.1
2023-03-13T06:49:34.073Z,6.1
2023-03-13T06:50:42.415Z,6.1
2023-03-13T06:51:50.919Z,18.6
2023-03-13T06:52:59.257Z,18.6
2023-03-13T06:54:07.582Z,18.6
2023-03-13T06:55:16.116Z,12
2023-03-13T06:56:24.438Z,12
2023-03-13T06:57:32.765Z,12
2023-03-13T06:58:41.307Z,183.6
2023-03-13T06:59:49.639Z,183.6
2023-03-13T07:00:58.098Z,183.6
2023-03-13T07:02:06.544Z,215.39999
2023-03-13T07:03:14.856Z,215.39999
2023-03-13T07:04:23.291Z,215.39999
2023-03-13T07:05:31.729Z,11.2
2023-03-13T07:06:40.084Z,11.2
2023-03-13T07:07:48.401Z,11.2
2023-03-13T07:08:56.944Z,9
2023-03-13T07:10:05.273Z,9
2023-03-13T07:11:13.600Z,9
2023-03-13T07:12:22.131Z,9.7
2023-03-13T07:13:30.560Z,9.7
2023-03-13T07:14:38.902Z,9.7
2023-03-13T07:15:47.427Z,4.2
2023-03-13T07:16:55.866Z,4.2
2023-03-13T07:18:04.131Z,4.2
2023-03-13T07:19:12.648Z,5.1
2023-03-13T07:20:21.045Z,5.1
2023-03-13T07:21:29.346Z,5.1
2023-03-13T07:22:37.902Z,5.4
2023-03-13T07:23:46.245Z,5.4
2023-03-13T07:24:54.607Z,5.4
2023-03-13T07:26:03.117Z,5.3
2023-03-13T07:27:11.465Z,5.3
2023-03-13T07:28:19.770Z,5.3
2023-03-13T07:29:28.319Z,4.7
2023-03-13T07:30:36.647Z,4.7
2023-03-13T07:31:45.006Z,4.7
2023-03-13T07:32:53.553Z,3.9
2023-03-13T07:34:01.854Z,3.9
2023-03-13T07:35:10.152Z,3.9
2023-03-13T07:36:18.801Z,4
2023-03-13T07:37:27.009Z,4
2023-03-13T07:38:35.367Z,4
2023-03-13T07:39:43.895Z,5.2
2023-03-13T07:40:52.213Z,5.2
2023-03-13T07:42:00.536Z,5.2
2023-03-13T07:43:09.074Z,4.9
2023-03-13T07:44:17.415Z,4.9
2023-03-13T07:45:25.736Z,4.9
2023-03-13T07:46:34.268Z,7.7
2023-03-13T07:47:42.601Z,7.7
2023-03-13T07:48:50.926Z,7.7
2023-03-13T07:49:59.556Z,5
2023-03-13T07:51:08.009Z,5
2023-03-13T07:52:16.243Z,5
2023-03-13T07:53:24.710Z,5
2023-03-13T07:54:32.975Z,5
2023-03-13T07:55:41.308Z,5
2023-03-13T07:56:49.832Z,7.9
2023-03-13T07:57:58.187Z,7.9
2023-03-13T07:59:06.930Z,7.9
2023-03-13T08:00:15.033Z,4.9
2023-03-13T08:01:25.593Z,4.9
2023-03-13T08:02:31.759Z,4.9
2023-03-13T08:03:40.282Z,5.5
2023-03-13T08:04:48.530Z,5.5
2023-03-13T08:05:56.877Z,5.5
2023-03-13T08:07:05.452Z,4.9
2023-03-13T08:08:13.725Z,4.9
2023-03-13T08:09:22.052Z,4.9
2023-03-13T08:10:30.576Z,5
2023-03-13T08:11:38.898Z,5
2023-03-13T08:12:47.227Z,5
2023-03-13T08:13:55.752Z,3.6
2023-03-13T08:15:04.093Z,3.6
2023-03-13T08:16:12.510Z,3.6
2023-03-13T08:17:20.933Z,5
2023-03-13T08:18:29.258Z,5
2023-03-13T08:19:37.581Z,5
2023-03-13T08:20:46.140Z,6.8
2023-03-13T08:21:54.464Z,6.8
2023-03-13T08:23:02.771Z,6.8
2023-03-13T08:24:11.315Z,5
2023-03-13T08:25:19.615Z,5
2023-03-13T08:26:27.952Z,5
2023-03-13T08:27:36.475Z,3.9
2023-03-13T08:28:44.804Z,3.9
2023-03-13T08:29:53.125Z,3.9
2023-03-13T08:31:01.727Z,4.4
2023-03-13T08:32:09.981Z,4.4
2023-03-13T08:33:18.314Z,4.4
2023-03-13T08:34:26.858Z,4
2023-03-13T08:35:35.226Z,4
2023-03-13T08:36:43.514Z,4
2023-03-13T08:37:52.071Z,3.2
2023-03-13T08:39:00.365Z,3.2
2023-03-13T08:40:08.698Z,3.2
2023-03-13T08:41:17.241Z,2.7
2023-03-13T08:42:25.562Z,2.7
2023-03-13T08:43:33.897Z,2.7
2023-03-13T08:44:42.438Z,3.9
2023-03-13T08:45:50.842Z,3.9
2023-03-13T08:46:59.077Z,3.9
2023-03-13T08:48:07.625Z,2.4
2023-03-13T08:49:15.947Z,2.4
2023-03-13T08:50:24.268Z,2.4
2023-03-13T08:51:32.793Z,1.9
2023-03-13T08:52:41.132Z,1.9
2023-03-13T08:53:49.475Z,1.9
2023-03-13T08:54:57.981Z,1.6
2023-03-13T08:56:06.318Z,1.6
2023-03-13T08:57:14.645Z,1.6
2023-03-13T08:58:23.203Z,1.2
2023-03-13T08:59:31.520Z,1.2
2023-03-13T09:00:39.833Z,1.2
2023-03-13T09:01:48.373Z,2.1
2023-03-13T09:02:56.753Z,2.1
2023-03-13T09:04:05.212Z,2.1
2023-03-13T09:05:13.584Z,2.4
2023-03-13T09:06:21.905Z,2.4
2023-03-13T09:07:30.243Z,2.4
2023-03-13T09:08:38.794Z,3.4
2023-03-13T09:09:47.148Z,3.4
2023-03-13T09:10:55.454Z,3.4
2023-03-13T09:12:03.970Z,3.9
2023-03-13T09:13:12.349Z,3.9
2023-03-13T09:14:20.670Z,3.9
2023-03-13T09:15:29.260Z,2.8
2023-03-13T09:16:37.587Z,2.8
2023-03-13T09:17:45.885Z,2.8
2023-03-13T09:18:54.479Z,2
2023-03-13T09:20:02.876Z,2
2023-03-13T09:21:11.160Z,2
2023-03-13T09:22:19.698Z,2.1
2023-03-13T09:23:28.045Z,2.1
2023-03-13T09:24:36.360Z,2.1
2023-03-13T09:25:44.913Z,1.8
2023-03-13T09:27:00.877Z,1.8
2023-03-13T09:28:01.547Z,1.8
2023-03-13T09:29:10.089Z,1.8
2023-03-13T09:30:18.425Z,1.8
2023-03-13T09:31:26.883Z,1.8
2023-03-13T09:32:35.410Z,1.8
2023-03-13T09:33:43.694Z,1.8
2023-03-13T09:34:52.020Z,1.8
2023-03-13T09:36:00.587Z,1.2
2023-03-13T09:37:08.906Z,1.2
2023-03-13T09:38:17.220Z,1.2
2023-03-13T09:39:25.742Z,1.6
2023-03-13T09:40:34.082Z,1.6
2023-03-13T09:41:42.433Z,1.6
2023-03-13T09:42:50.946Z,1.7
2023-03-13T09:43:59.271Z,1.7
2023-03-13T09:45:07.599Z,1.7
2023-03-13T09:46:16.197Z,2
2023-03-13T09:47:24.493Z,2
2023-03-13T09:48:32.806Z,2
2023-03-13T09:49:41.366Z,2.4
2023-03-13T09:50:49.671Z,2.4
2023-03-13T09:51:58.009Z,2.4
2023-03-13T09:53:06.541Z,1.9
2023-03-13T09:54:14.868Z,1.9
2023-03-13T09:55:23.198Z,1.9
2023-03-13T09:56:31.714Z,2.7
2023-03-13T09:57:40.082Z,2.7
2023-03-13T09:58:48.377Z,2.7
2023-03-13T09:59:56.928Z,2.2
2023-03-13T10:01:05.262Z,2.2
2023-03-13T10:02:13.580Z,2.2
2023-03-13T10:03:22.123Z,2.1
2023-03-13T10:04:30.523Z,2.1
2023-03-13T10:05:38.765Z,2.1
2023-03-13T10:06:47.355Z,2.8
2023-03-13T10:07:55.700Z,2.8
2023-03-13T10:09:04.024Z,2.8
2023-03-13T10:10:12.567Z,2.7
2023-03-13T10:11:20.893Z,2.7
2023-03-13T10:12:29.240Z,2.7
2023-03-13T10:13:37.813Z,2.6
2023-03-13T10:14:46.109Z,2.6
2023-03-13T10:15:54.514Z,2.6
2023-03-13T10:17:02.993Z,2.1
2023-03-13T10:18:11.351Z,2.1
2023-03-13T10:19:19.655Z,2.1
2023-03-13T10:20:28.198Z,3.8
2023-03-13T10:21:36.504Z,3.8
2023-03-13T10:22:44.846Z,3.8
2023-03-13T10:23:53.378Z,2.3
2023-03-13T10:25:01.706Z,2.3
2023-03-13T10:26:10.039Z,2.3
2023-03-13T10:27:18.563Z,2.8
2023-03-13T10:28:26.899Z,2.8
2023-03-13T10:29:35.253Z,2.8
2023-03-13T10:30:43.744Z,1.9
2023-03-13T10:31:52.067Z,1.9
2023-03-13T10:33:00.459Z,1.9
2023-03-13T10:34:08.946Z,1.8
2023-03-13T10:35:17.265Z,1.8
2023-03-13T10:36:25.590Z,1.8
2023-03-13T10:37:34.125Z,2
2023-03-13T10:38:42.457Z,2
2023-03-13T10:39:50.782Z,2
2023-03-13T10:40:59.321Z,2
2023-03-13T10:42:07.647Z,2
2023-03-13T10:43:15.986Z,2
2023-03-13T10:44:24.513Z,3.1
2023-03-13T10:45:32.916Z,3.1
2023-03-13T10:46:41.245Z,3.1
2023-03-13T10:47:49.726Z,2
2023-03-13T10:48:58.048Z,2
2023-03-13T10:50:06.393Z,2
2023-03-13T10:51:14.922Z,2
2023-03-13T10:52:23.259Z,2
2023-03-13T10:53:31.591Z,2
2023-03-13T10:54:40.122Z,2.4
2023-03-13T10:55:48.443Z,2.4
2023-03-13T10:56:56.787Z,2.4
2023-03-13T10:58:05.318Z,2
2023-03-13T10:59:13.693Z,2
2023-03-13T11:00:22.013Z,2
2023-03-13T11:01:30.579Z,2.5
2023-03-13T11:02:39.074Z,2.5
2023-03-13T11:03:47.379Z,2.5
2023-03-13T11:04:55.828Z,2.9
2023-03-13T11:06:04.154Z,2.9
2023-03-13T11:07:12.478Z,2.9
2023-03-13T11:08:21.096Z,3.1
2023-03-13T11:09:29.367Z,3.1
2023-03-13T11:10:37.693Z,3.1
2023-03-13T11:11:46.244Z,3
2023-03-13T11:12:54.584Z,3
2023-03-13T11:14:02.897Z,3
2023-03-13T11:15:11.448Z,3.8
2023-03-13T11:16:19.826Z,3.8
2023-03-13T11:17:28.113Z,3.8
2023-03-13T11:18:36.632Z,3.7
2023-03-13T11:19:44.954Z,3.7
2023-03-13T11:20:53.276Z,3.7
2023-03-13T11:22:01.837Z,3.9
2023-03-13T11:23:10.161Z,3.9
2023-03-13T11:24:18.476Z,3.9
2023-03-13T11:25:27.007Z,3.6
2023-03-13T11:26:35.351Z,3.6
2023-03-13T11:27:43.693Z,3.6
2023-03-13T11:28:52.218Z,3.9
2023-03-13T11:30:00.670Z,3.9
2023-03-13T11:31:08.959Z,3.9
2023-03-13T11:32:17.489Z,3.4
2023-03-13T11:33:25.788Z,3.4
2023-03-13T11:34:34.114Z,3.4
2023-03-13T11:35:42.677Z,2.4
2023-03-13T11:36:50.958Z,2.4
2023-03-13T11:37:59.307Z,2.4
2023-03-13T11:39:07.841Z,3.2
2023-03-13T11:40:16.164Z,3.2
2023-03-13T11:41:24.551Z,3.2
2023-03-13T11:42:33.033Z,2.9
2023-03-13T11:43:42.383Z,2.9
2023-03-13T11:44:49.785Z,2.9
2023-03-13T11:45:58.448Z,2.9
2023-03-13T11:47:06.694Z,2.9
2023-03-13T11:48:14.997Z,2.9
2023-03-13T11:49:23.570Z,2.6
2023-03-13T11:50:31.873Z,2.6
2023-03-13T11:51:40.296Z,2.6
2023-03-13T11:52:48.772Z,2.5
2023-03-13T11:53:57.084Z,2.5
2023-03-13T11:55:05.415Z,2.5
2023-03-13T11:56:13.960Z,4.6
2023-03-13T11:57:22.300Z,4.6
2023-03-13T11:58:30.655Z,4.6
2023-03-13T11:59:39.184Z,3.8
2023-03-13T12:00:47.575Z,3.8
2023-03-13T12:01:55.889Z,3.8
2023-03-13T12:03:04.380Z,3.6
2023-03-13T12:04:12.710Z,3.6
2023-03-13T12:05:21.159Z,3.6
2023-03-13T12:06:30.575Z,3.7
2023-03-13T12:07:37.928Z,3.7
2023-03-13T12:08:46.275Z,3.7
2023-03-13T12:09:54.804Z,4.3
2023-03-13T12:11:03.144Z,4.3
2023-03-13T12:12:11.451Z,4.3
2023-03-13T12:13:20.027Z,3.2
2023-03-13T12:14:28.359Z,3.2
2023-03-13T12:15:36.689Z,3.2
2023-03-13T12:16:45.347Z,3.1
2023-03-13T12:17:53.631Z,3.1
2023-03-13T12:19:01.907Z,3.1
2023-03-13T12:20:10.445Z,3.6
2023-03-13T12:21:18.830Z,3.6
2023-03-13T12:22:27.118Z,3.6
2023-03-13T12:23:35.705Z,3.8
2023-03-13T12:24:44.005Z,3.8
2023-03-13T12:25:52.399Z,3.8
2023-03-13T12:27:00.881Z,3.2
2023-03-13T12:28:09.299Z,3.2
2023-03-13T12:29:17.567Z,3.2
2023-03-13T12:30:26.106Z,3.9
2023-03-13T12:31:34.420Z,3.9
2023-03-13T12:32:42.797Z,3.9
2023-03-13T12:33:51.304Z,4.4
2023-03-13T12:34:59.653Z,4.4
2023-03-13T12:36:08.056Z,4.4
2023-03-13T12:37:16.553Z,3.9
2023-03-13T12:38:24.862Z,3.9
2023-03-13T12:39:33.183Z,3.9
2023-03-13T12:40:41.726Z,3.2
2023-03-13T12:41:50.056Z,3.2
2023-03-13T12:42:58.396Z,3.2
2023-03-13T12:44:09.494Z,3.5
2023-03-13T12:45:15.276Z,3.5
2023-03-13T12:46:23.683Z,3.5
2023-03-13T12:47:32.153Z,3.8
2023-03-13T12:48:40.479Z,3.8
2023-03-13T12:49:48.825Z,3.8
2023-03-13T12:50:57.338Z,4.6
2023-03-13T12:52:05.681Z,4.6
2023-03-13T12:53:14.054Z,4.6
2023-03-13T12:54:22.550Z,3.6
2023-03-13T12:55:30.911Z,3.6
2023-03-13T12:56:39.222Z,3.6
2023-03-13T12:57:47.843Z,4.8
2023-03-13T12:58:56.090Z,4.8
2023-03-13T13:00:04.481Z,4.8
2023-03-13T13:01:13.049Z,4.5
2023-03-13T13:02:21.333Z,4.5
2023-03-13T13:03:29.699Z,4.5
2023-03-13T13:04:38.234Z,3.5
2023-03-13T13:05:46.538Z,3.5
2023-03-13T13:06:54.871Z,3.5
2023-03-13T13:08:03.415Z,4.1
2023-03-13T13:09:11.770Z,4.1
2023-03-13T13:10:20.075Z,4.1
2023-03-13T13:11:28.617Z,6.3
2023-03-13T13:12:36.940Z,6.3
2023-03-13T13:13:45.274Z,6.3
2023-03-13T13:14:53.813Z,3.2
2023-03-13T13:16:02.236Z,3.2
2023-03-13T13:17:10.456Z,3.2
2023-03-13T13:18:19.043Z,5
2023-03-13T13:19:27.433Z,5
2023-03-13T13:20:35.739Z,5
2023-03-13T13:21:44.322Z,4
2023-03-13T13:22:53.064Z,4
2023-03-13T13:24:00.965Z,4
2023-03-13T13:25:09.524Z,4.3
2023-03-13T13:26:17.842Z,4.3
2023-03-13T13:27:26.169Z,4.3
2023-03-13T13:28:34.704Z,4.1
2023-03-13T13:29:43.035Z,4.1
2023-03-13T13:30:52.206Z,4.1
2023-03-13T13:31:59.931Z,3.6
2023-03-13T13:33:09.867Z,3.6
2023-03-13T13:34:16.593Z,3.6
2023-03-13T13:35:25.143Z,3.4
2023-03-13T13:36:33.465Z,3.4
2023-03-13T13:37:41.804Z,3.4
2023-03-13T13:38:50.354Z,4.4
2023-03-13T13:39:58.759Z,4.4
2023-03-13T13:41:07.070Z,4.4
2023-03-13T13:42:15.574Z,3.9
2023-03-13T13:43:23.919Z,3.9
2023-03-13T13:44:32.243Z,3.9
2023-03-13T13:45:40.833Z,3.6
2023-03-13T13:46:49.212Z,3.6
2023-03-13T13:47:57.512Z,3.6
2023-03-13T13:49:06.044Z,3.7
2023-03-13T13:50:14.383Z,3.7
2023-03-13T13:51:22.706Z,3.7
2023-03-13T13:52:31.251Z,3.4
2023-03-13T13:53:39.674Z,3.4
2023-03-13T13:54:47.914Z,3.4
2023-03-13T13:55:56.431Z,2.9
2023-03-13T13:57:04.834Z,2.9
2023-03-13T13:58:13.071Z,2.9
2023-03-13T13:59:21.619Z,4
2023-03-13T14:00:29.936Z,4
2023-03-13T14:01:38.361Z,4
2023-03-13T14:02:46.807Z,3.4
2023-03-13T14:03:55.144Z,3.4
2023-03-13T14:05:03.542Z,3.4
2023-03-13T14:06:12.038Z,5
2023-03-13T14:07:20.372Z,5
2023-03-13T14:08:28.734Z,5
2023-03-13T14:09:37.555Z,3
2023-03-13T14:10:45.580Z,3
2023-03-13T14:11:53.914Z,3
2023-03-13T14:13:02.494Z,3.6
2023-03-13T14:14:10.786Z,3.6
2023-03-13T14:15:19.501Z,3.6
2023-03-13T14:16:28.111Z,3.5
2023-03-13T14:17:36.369Z,3.5
2023-03-13T14:18:44.760Z,3.5
2023-03-13T14:19:53.352Z,3.7
2023-03-13T14:21:01.881Z,3.7
2023-03-13T14:22:10.492Z,3.7
2023-03-13T14:23:19.589Z,4.6
2023-03-13T14:24:27.944Z,4.6
2023-03-13T14:25:36.266Z,4.6
2023-03-13T14:26:44.811Z,7
2023-03-13T14:27:53.140Z,7
2023-03-13T14:29:01.493Z,7
2023-03-13T14:30:10.024Z,6.2
2023-03-13T15:03:41.513Z,0
2023-03-13T15:04:49.831Z,0
2023-03-13T15:05:58.154Z,0
2023-03-13T15:07:06.701Z,10.5
2023-03-13T15:08:15.038Z,10.5
2023-03-13T15:09:23.368Z,10.5
2023-03-13T15:10:31.920Z,4.2
2023-03-13T15:11:40.233Z,4.2
2023-03-13T15:12:48.558Z,4.2
2023-03-13T15:13:57.100Z,3.4
2023-03-13T15:15:05.433Z,3.4
2023-03-13T15:16:13.818Z,3.4
2023-03-13T15:17:22.293Z,5.7
2023-03-13T15:18:30.637Z,5.7
2023-03-13T15:19:38.992Z,5.7
2023-03-13T15:20:47.502Z,3.6
2023-03-13T15:21:55.828Z,3.6
2023-03-13T15:23:04.181Z,3.6
2023-03-13T15:24:12.740Z,4.4
2023-03-13T15:25:21.017Z,4.4
2023-03-13T15:26:29.335Z,4.4
2023-03-13T15:27:37.892Z,5.4
2023-03-13T15:28:46.230Z,5.4
2023-03-13T15:29:54.573Z,5.4
2023-03-13T15:31:03.106Z,4.6
2023-03-13T15:32:11.472Z,4.6
2023-03-13T15:33:19.777Z,4.6
2023-03-13T15:34:28.328Z,4.6
2023-03-13T15:35:36.714Z,4.6
2023-03-13T15:36:44.978Z,4.6
2023-03-13T15:37:53.526Z,4.6
2023-03-13T15:39:01.878Z,4.6
2023-03-13T15:40:10.203Z,4.6
2023-03-13T15:41:18.778Z,4.1
2023-03-13T15:42:27.124Z,4.1
2023-03-13T15:43:35.455Z,4.1
2023-03-13T15:44:43.989Z,3.6
2023-03-13T15:45:52.407Z,3.6
2023-03-13T15:47:00.723Z,3.6
2023-03-13T15:48:09.256Z,3.6
2023-03-13T15:49:17.597Z,3.6
2023-03-13T15:50:25.937Z,3.6
2023-03-13T15:51:34.558Z,4
2023-03-13T15:52:42.823Z,4
2023-03-13T15:53:51.155Z,4
2023-03-13T15:54:59.774Z,7.6